createdAt,value
2022-10-23T09:22:00.710Z,1003.5
2022-10-23T09:23:17.664Z,1003.6
2022-10-23T09:24:34.641Z,1003.6
2022-10-23T09:25:51.802Z,1003.6
2022-10-23T09:27:08.723Z,1003.5
2022-10-23T09:28:25.644Z,1003.6
2022-10-23T09:29:42.657Z,1003.6
2022-10-23T09:30:59.695Z,1003.6
2022-10-23T09:32:16.697Z,1003.6
2022-10-23T09:33:33.657Z,1003.6
2022-10-23T09:34:50.661Z,1003.6
2022-10-23T09:36:07.690Z,1003.6
2022-10-23T09:37:24.724Z,1003.6
2022-10-23T09:38:41.704Z,1003.6
2022-10-23T09:39:58.673Z,1003.6
2022-10-23T09:41:15.666Z,1003.5
2022-10-23T09:42:32.735Z,1003.6
2022-10-23T09:43:49.681Z,1003.6
2022-10-23T09:45:06.743Z,1003.6
2022-10-23T09:46:24.142Z,1003.6
2022-10-23T09:47:41.934Z,1003.6
2022-10-23T09:48:59.874Z,1003.7
2022-10-23T09:50:15.683Z,1003.6
2022-10-23T09:51:32.742Z,1003.6
2022-10-23T09:52:49.732Z,1003.6
2022-10-23T09:54:06.734Z,1003.6
2022-10-23T09:55:23.752Z,1003.6
2022-10-23T09:56:40.754Z,1003.6
2022-10-23T09:57:57.818Z,1003.6
2022-10-23T09:59:14.748Z,1003.6
2022-10-23T10:00:31.728Z,1003.6
2022-10-23T10:01:48.862Z,1003.6
2022-10-23T10:03:05.726Z,1003.6
2022-10-23T10:04:22.774Z,1003.6
2022-10-23T10:05:39.717Z,1003.6
2022-10-23T10:06:56.722Z,1003.6
2022-10-23T10:08:13.746Z,1003.6
2022-10-23T10:09:30.740Z,1003.6
2022-10-23T10:10:47.755Z,1003.6
2022-10-23T10:12:04.740Z,1003.6
2022-10-23T10:13:21.732Z,1003.6
2022-10-23T10:14:38.759Z,1003.6
2022-10-23T10:15:55.731Z,1003.5
2022-10-23T10:17:12.739Z,1003.5
2022-10-23T10:18:29.866Z,1003.5
2022-10-23T10:19:46.820Z,1003.5
2022-10-23T10:21:03.759Z,1003.5
2022-10-23T10:22:20.744Z,1003.5
2022-10-23T10:23:37.777Z,1003.5
2022-10-23T10:24:54.777Z,1003.5
2022-10-23T10:26:11.755Z,1003.4
2022-10-23T10:27:28.794Z,1003.4
2022-10-23T10:28:45.745Z,1003.4
2022-10-23T10:30:03.369Z,1003.4
2022-10-23T10:31:19.763Z,1003.4
2022-10-23T10:32:36.811Z,1003.4
2022-10-23T10:33:53.768Z,1003.4
2022-10-23T10:35:10.716Z,1003.4
2022-10-23T10:36:27.774Z,1003.4
2022-10-23T10:37:44.984Z,1003.5
2022-10-23T10:39:02.025Z,1003.5
2022-10-23T10:40:18.792Z,1003.5
2022-10-23T10:41:35.781Z,1003.4
2022-10-23T10:42:52.814Z,1003.4
2022-10-23T10:44:09.782Z,1003.4
2022-10-23T10:45:26.800Z,1003.4
2022-10-23T10:46:43.867Z,1003.4
2022-10-23T10:48:01.206Z,1003.4
2022-10-23T10:49:17.831Z,1003.4
2022-10-23T10:50:34.796Z,1003.4
2022-10-23T10:51:51.805Z,1003.4
2022-10-23T10:53:08.811Z,1003.4
2022-10-23T10:54:26.903Z,1003.4
2022-10-23T10:55:43.806Z,1003.4
2022-10-23T10:57:00.810Z,1003.3
2022-10-23T10:58:17.801Z,1003.2
2022-10-23T10:59:34.984Z,1003.2
2022-10-23T11:00:51.889Z,1003.2
2022-10-23T11:02:09.020Z,1003.2
2022-10-23T11:03:26.137Z,1003.1
2022-10-23T11:04:42.882Z,1003.1
2022-10-23T11:07:16.858Z,1003.2
2022-10-23T11:08:40.098Z,1003.1
2022-10-23T11:09:51.059Z,1003.1
2022-10-23T11:11:07.835Z,1003.1
2022-10-23T11:12:25.018Z,1003.1
2022-10-23T11:13:41.853Z,1003.1
2022-10-23T11:14:58.834Z,1003.1
2022-10-23T11:16:15.830Z,1003.1
2022-10-23T11:17:32.897Z,1003.1
2022-10-23T11:18:49.859Z,1003.1
2022-10-23T11:20:06.851Z,1003.1
2022-10-23T11:21:23.836Z,1003
2022-10-23T11:22:41.096Z,1003.1
2022-10-23T11:23:57.878Z,1003
2022-10-23T11:25:14.904Z,1002.9
2022-10-23T11:26:31.862Z,1003
2022-10-23T11:27:48.887Z,1003
2022-10-23T11:29:05.910Z,1002.9
2022-10-23T11:30:22.873Z,1002.9
2022-10-23T11:31:39.867Z,1002.9
2022-10-23T11:32:56.890Z,1002.9
2022-10-23T11:34:13.892Z,1003
2022-10-23T11:35:31.164Z,1003
2022-10-23T11:36:47.878Z,1003
2022-10-23T11:38:04.888Z,1003
2022-10-23T11:39:21.939Z,1003
2022-10-23T11:40:38.970Z,1002.9
2022-10-23T11:41:56.094Z,1003
2022-10-23T11:43:12.925Z,1003
2022-10-23T11:44:29.887Z,1003
2022-10-23T11:45:46.897Z,1003.1
2022-10-23T11:47:04.022Z,1003.1
2022-10-23T11:48:21.008Z,1003
2022-10-23T11:49:38.310Z,1002.9
2022-10-23T11:50:54.903Z,1002.9
2022-10-23T11:52:11.900Z,1002.9
2022-10-23T11:53:29.015Z,1002.9
2022-10-23T11:54:45.952Z,1002.9
2022-10-23T11:56:02.995Z,1002.9
2022-10-23T11:57:19.987Z,1002.9
2022-10-23T11:58:36.954Z,1002.8
2022-10-23T11:59:53.960Z,1002.8
2022-10-23T12:01:11.004Z,1002.8
2022-10-23T12:02:27.998Z,1002.8
2022-10-23T12:03:44.935Z,1002.7
2022-10-23T12:05:02.315Z,1002.7
2022-10-23T12:06:18.953Z,1002.7
2022-10-23T12:07:35.977Z,1002.7
2022-10-23T12:08:52.958Z,1002.7
2022-10-23T12:10:09.961Z,1002.7
2022-10-23T12:11:27.550Z,1002.6
2022-10-23T12:12:44.024Z,1002.6
2022-10-23T12:14:00.980Z,1002.6
2022-10-23T12:15:17.963Z,1002.6
2022-10-23T12:16:34.950Z,1002.6
2022-10-23T12:17:51.973Z,1002.6
2022-10-23T12:19:09.109Z,1002.6
2022-10-23T12:20:27.019Z,1002.5
2022-10-23T12:21:44.002Z,1002.5
2022-10-23T12:23:01.065Z,1002.5
2022-10-23T12:24:17.959Z,1002.6
2022-10-23T12:25:35.150Z,1002.6
2022-10-23T12:26:52.059Z,1002.5
2022-10-23T12:28:09.013Z,1002.5
2022-10-23T12:29:26.020Z,1002.5
2022-10-23T12:30:43.159Z,1002.5
2022-10-23T12:31:59.988Z,1002.4
2022-10-23T12:33:16.990Z,1002.4
2022-10-23T12:34:34.005Z,1002.4
2022-10-23T12:35:51.019Z,1002.3
2022-10-23T12:37:07.996Z,1002.3
2022-10-23T12:38:24.999Z,1002.3
2022-10-23T12:39:41.982Z,1002.3
2022-10-23T12:40:58.978Z,1002.2
2022-10-23T12:42:16.970Z,1002.3
2022-10-23T12:43:34.010Z,1002.2
2022-10-23T12:44:50.990Z,1002.2
2022-10-23T12:46:08.079Z,1002.2
2022-10-23T12:47:25.041Z,1002.2
2022-10-23T12:48:42.010Z,1002.1
2022-10-23T12:49:59.003Z,1002.1
2022-10-23T12:51:16.041Z,1002.1
2022-10-23T12:52:33.010Z,1002.1
2022-10-23T12:53:49.997Z,1002.1
2022-10-23T12:55:07.003Z,1002
2022-10-23T12:56:24.071Z,1002
2022-10-23T12:57:41.297Z,1002
2022-10-23T12:58:58.016Z,1002
2022-10-23T13:00:15.043Z,1001.9
2022-10-23T13:01:32.142Z,1001.9
2022-10-23T13:02:49.014Z,1001.9
2022-10-23T13:04:06.097Z,1001.9
2022-10-23T13:05:23.150Z,1001.9
2022-10-23T13:06:41.167Z,1001.9
2022-10-23T13:07:58.042Z,1001.9
2022-10-23T13:09:15.043Z,1001.9
2022-10-23T13:10:32.053Z,1001.9
2022-10-23T13:11:49.050Z,1001.9
2022-10-23T13:13:06.077Z,1001.9
2022-10-23T13:14:23.037Z,1001.9
2022-10-23T13:15:40.065Z,1001.9
2022-10-23T13:16:57.089Z,1001.9
2022-10-23T13:18:14.036Z,1001.9
2022-10-23T13:19:31.044Z,1001.9
2022-10-23T13:20:48.060Z,1001.9
2022-10-23T13:22:05.075Z,1002
2022-10-23T13:23:22.068Z,1002
2022-10-23T13:24:39.100Z,1002
2022-10-23T13:25:56.105Z,1002
2022-10-23T13:27:13.270Z,1002
2022-10-23T13:28:30.147Z,1002
2022-10-23T13:29:47.094Z,1001.9
2022-10-23T13:31:04.071Z,1001.9
2022-10-23T13:32:21.062Z,1001.9
2022-10-23T13:33:38.123Z,1001.8
2022-10-23T13:34:58.239Z,1001.9
2022-10-23T13:36:12.081Z,1001.8
2022-10-23T13:37:29.077Z,1001.8
2022-10-23T13:38:46.317Z,1001.9
2022-10-23T13:40:03.363Z,1001.8
2022-10-23T13:41:20.079Z,1001.8
2022-10-23T13:42:37.284Z,1001.9
2022-10-23T13:43:54.130Z,1001.9
2022-10-23T13:45:11.087Z,1001.9
2022-10-23T13:46:28.144Z,1001.8
2022-10-23T13:47:45.575Z,1001.7
2022-10-23T13:49:03.754Z,1001.8
2022-10-23T13:50:21.235Z,1001.8
2022-10-23T13:51:40.067Z,1001.8
2022-10-23T13:52:55.343Z,1001.8
2022-10-23T13:54:13.105Z,1001.8
2022-10-23T13:55:30.148Z,1001.8
2022-10-23T13:56:47.677Z,1001.7
2022-10-23T13:58:05.289Z,1001.8
2022-10-23T13:59:22.627Z,1001.8
2022-10-23T14:00:40.165Z,1001.8
2022-10-23T14:01:57.837Z,1001.8
2022-10-23T14:03:15.182Z,1001.8
2022-10-23T14:04:32.536Z,1001.8
2022-10-23T14:05:50.359Z,1001.8
2022-10-23T14:07:07.638Z,1001.8
2022-10-23T14:08:25.506Z,1001.8
2022-10-23T14:09:42.426Z,1001.8
2022-10-23T14:11:00.367Z,1001.8
2022-10-23T14:12:17.546Z,1001.8
2022-10-23T14:13:35.500Z,1001.8
2022-10-23T14:14:54.489Z,1001.8
2022-10-23T14:16:12.498Z,1001.8
2022-10-23T14:17:32.137Z,1001.8
2022-10-23T14:18:49.858Z,1001.8
2022-10-23T14:20:07.620Z,1001.9
2022-10-23T14:21:24.257Z,1001.8
2022-10-23T14:22:41.406Z,1001.8
2022-10-23T14:23:58.814Z,1001.8
2022-10-23T14:25:16.261Z,1001.8
2022-10-23T14:26:34.568Z,1001.8
2022-10-23T14:27:51.406Z,1001.9
2022-10-23T14:29:10.226Z,1001.8
2022-10-23T14:30:25.541Z,1001.8
2022-10-23T14:31:42.564Z,1001.8
2022-10-23T14:33:00.807Z,1001.8
2022-10-23T14:34:19.241Z,1001.8
2022-10-23T14:35:36.944Z,1001.8
2022-10-23T14:37:03.994Z,1001.8
2022-10-23T14:38:11.200Z,1001.8
2022-10-23T14:39:28.666Z,1001.8
2022-10-23T14:40:45.262Z,1001.8
2022-10-23T14:42:02.408Z,1001.8
2022-10-23T14:43:19.196Z,1001.8
2022-10-23T14:44:36.248Z,1001.8
2022-10-23T14:45:53.401Z,1001.8
2022-10-23T14:47:10.229Z,1001.7
2022-10-23T14:48:27.443Z,1001.7
2022-10-23T14:49:45.976Z,1001.7
2022-10-23T14:51:03.470Z,1001.7
2022-10-23T14:52:21.091Z,1001.6
2022-10-23T14:53:38.770Z,1001.6
2022-10-23T14:54:57.121Z,1001.6
2022-10-23T14:56:14.283Z,1001.6
2022-10-23T14:57:31.602Z,1001.6
2022-10-23T14:58:48.335Z,1001.6
2022-10-23T15:00:05.490Z,1001.6
2022-10-23T15:01:22.420Z,1001.6
2022-10-23T15:02:39.235Z,1001.6
2022-10-23T15:03:56.299Z,1001.5
2022-10-23T15:05:13.305Z,1001.6
2022-10-23T15:06:30.646Z,1001.6
2022-10-23T15:07:47.507Z,1001.5
2022-10-23T15:09:05.563Z,1001.5
2022-10-23T15:10:23.523Z,1001.5
2022-10-23T15:11:40.575Z,1001.5
2022-10-23T15:12:57.711Z,1001.6
2022-10-23T15:14:16.229Z,1001.5
2022-10-23T15:15:34.005Z,1001.6
2022-10-23T15:16:52.226Z,1001.6
2022-10-23T15:18:09.463Z,1001.5
2022-10-23T15:19:26.604Z,1001.5
2022-10-23T15:20:43.263Z,1001.5
2022-10-23T15:22:00.312Z,1001.5
2022-10-23T15:23:18.372Z,1001.5
2022-10-23T15:24:35.379Z,1001.5
2022-10-23T15:25:52.577Z,1001.5
2022-10-23T15:28:28.234Z,1001.5
2022-10-23T15:29:46.284Z,1001.5
2022-10-23T15:31:04.508Z,1001.5
2022-10-23T15:32:22.012Z,1001.5
2022-10-23T15:33:39.839Z,1001.5
2022-10-23T15:34:56.459Z,1001.4
2022-10-23T15:36:14.185Z,1001.5
2022-10-23T15:37:31.299Z,1001.4
2022-10-23T15:38:48.579Z,1001.4
2022-10-23T15:40:07.017Z,1001.4
2022-10-23T15:41:24.519Z,1001.4
2022-10-23T15:42:41.630Z,1001.3
2022-10-23T15:43:58.690Z,1001.4
2022-10-23T15:45:16.662Z,1001.4
2022-10-23T15:46:33.560Z,1001.4
2022-10-23T15:47:50.392Z,1001.4
2022-10-23T15:49:07.881Z,1001.3
2022-10-23T15:50:25.330Z,1001.4
2022-10-23T15:51:43.199Z,1001.3
2022-10-23T15:53:00.598Z,1001.3
2022-10-23T15:54:18.927Z,1001.3
2022-10-23T15:55:36.804Z,1001.3
2022-10-23T15:56:54.991Z,1001.4
2022-10-23T15:58:12.694Z,1001.4
2022-10-23T15:59:30.315Z,1001.4
2022-10-23T16:00:48.055Z,1001.4
2022-10-23T16:02:06.754Z,1001.4
2022-10-23T16:03:23.638Z,1001.4
2022-10-23T16:04:40.708Z,1001.4
2022-10-23T16:05:58.541Z,1001.4
2022-10-23T16:07:15.477Z,1001.4
2022-10-23T16:08:32.442Z,1001.4
2022-10-23T16:09:50.389Z,1001.5
2022-10-23T16:11:07.474Z,1001.5
2022-10-23T16:12:24.385Z,1001.5
2022-10-23T16:13:41.463Z,1001.5
2022-10-23T16:14:58.350Z,1001.5
2022-10-23T16:16:15.359Z,1001.5
2022-10-23T16:17:33.090Z,1001.5
2022-10-23T16:18:50.407Z,1001.5
2022-10-23T16:20:07.545Z,1001.5
2022-10-23T16:21:24.412Z,1001.5
2022-10-23T16:22:44.074Z,1001.5
2022-10-23T16:23:59.912Z,1001.5
2022-10-23T16:25:16.617Z,1001.5
2022-10-23T16:26:33.424Z,1001.5
2022-10-23T16:27:50.475Z,1001.6
2022-10-23T16:29:07.451Z,1001.6
2022-10-23T16:30:24.464Z,1001.6
2022-10-23T16:31:41.375Z,1001.7
2022-10-23T16:32:59.044Z,1001.7
2022-10-23T16:34:15.733Z,1001.6
2022-10-23T16:35:32.507Z,1001.6
2022-10-23T16:36:52.063Z,1001.6
2022-10-23T16:38:09.399Z,1001.7
2022-10-23T16:39:26.419Z,1001.7
2022-10-23T16:40:43.465Z,1001.7
2022-10-23T16:42:00.801Z,1001.6
2022-10-23T16:43:18.358Z,1001.6
2022-10-23T16:44:35.453Z,1001.6
2022-10-23T16:45:52.559Z,1001.6
2022-10-23T16:47:09.524Z,1001.5
2022-10-23T16:48:26.389Z,1001.5
2022-10-23T16:49:43.414Z,1001.5
2022-10-23T16:51:00.591Z,1001.4
2022-10-23T16:52:18.733Z,1001.4
2022-10-23T16:53:35.466Z,1001.5
2022-10-23T16:54:52.784Z,1001.4
2022-10-23T16:56:09.467Z,1001.4
2022-10-23T16:57:26.427Z,1001.4
2022-10-23T16:58:43.849Z,1001.4
2022-10-23T17:00:01.407Z,1001.4
2022-10-23T17:01:18.951Z,1001.4
2022-10-23T17:02:35.663Z,1001.4
2022-10-23T17:03:53.777Z,1001.4
2022-10-23T17:05:11.482Z,1001.4
2022-10-23T17:06:28.501Z,1001.5
2022-10-23T17:07:45.955Z,1001.4
2022-10-23T17:09:03.307Z,1001.4
2022-10-23T17:10:21.481Z,1001.4
2022-10-23T17:11:38.650Z,1001.4
2022-10-23T17:12:56.039Z,1001.4
2022-10-23T17:14:14.264Z,1001.4
2022-10-23T17:15:30.980Z,1001.4
2022-10-23T17:16:48.334Z,1001.3
2022-10-23T17:18:06.649Z,1001.3
2022-10-23T17:19:43.538Z,1001.3
2022-10-23T17:20:41.042Z,1001.3
2022-10-23T17:21:58.708Z,1001.3
2022-10-23T17:23:15.788Z,1001.3
2022-10-23T17:24:34.310Z,1001.3
2022-10-23T17:25:51.665Z,1001.3
2022-10-23T17:27:08.498Z,1001.3
2022-10-23T17:28:25.521Z,1001.3
2022-10-23T17:29:42.797Z,1001.3
2022-10-23T17:31:00.730Z,1001.3
2022-10-23T17:32:18.342Z,1001.3
2022-10-23T17:33:35.713Z,1001.3
2022-10-23T17:34:52.875Z,1001.3
2022-10-23T17:36:09.542Z,1001.3
2022-10-23T17:37:26.497Z,1001.3
2022-10-23T17:38:45.119Z,1001.3
2022-10-23T17:40:02.891Z,1001.4
2022-10-23T17:41:19.781Z,1001.4
2022-10-23T17:42:36.645Z,1001.3
2022-10-23T17:43:53.680Z,1001.3
2022-10-23T17:45:10.528Z,1001.3
2022-10-23T17:46:28.149Z,1001.2
2022-10-23T17:47:45.845Z,1001.2
2022-10-23T17:49:03.561Z,1001.2
2022-10-23T17:50:20.521Z,1001.3
2022-10-23T17:51:37.579Z,1001.2
2022-10-23T17:52:54.523Z,1001.2
2022-10-23T17:54:11.506Z,1001.2
2022-10-23T17:55:28.612Z,1001.1
2022-10-23T17:56:45.860Z,1001.1
2022-10-23T17:58:03.830Z,1001.1
2022-10-23T17:59:20.822Z,1001
2022-10-23T18:00:38.063Z,1001
2022-10-23T18:01:56.747Z,1001
2022-10-23T18:03:15.476Z,1001
2022-10-23T18:04:30.787Z,1001
2022-10-23T18:05:47.951Z,1001
2022-10-23T18:07:04.653Z,1001
2022-10-23T18:08:21.814Z,1001
2022-10-23T18:09:38.556Z,1001
2022-10-23T18:10:55.615Z,1001
2022-10-23T18:12:12.572Z,1000.9
2022-10-23T18:13:29.816Z,1000.9
2022-10-23T18:14:46.583Z,1000.9
2022-10-23T18:16:04.575Z,1000.9
2022-10-23T18:17:21.594Z,1000.9
2022-10-23T18:18:38.528Z,1000.9
2022-10-23T18:19:58.426Z,1000.9
2022-10-23T18:21:12.532Z,1000.9
2022-10-23T18:22:29.593Z,1000.9
2022-10-23T18:23:46.819Z,1000.9
2022-10-23T18:25:03.720Z,1000.9
2022-10-23T18:26:20.636Z,1000.9
2022-10-23T18:27:37.552Z,1000.9
2022-10-23T18:28:54.560Z,1000.8
2022-10-23T18:30:11.633Z,1000.8
2022-10-23T18:31:28.602Z,1000.7
2022-10-23T18:32:45.677Z,1000.8
2022-10-23T18:34:02.599Z,1000.7
2022-10-23T18:35:19.559Z,1000.7
2022-10-23T18:36:36.588Z,1000.7
2022-10-23T18:37:53.638Z,1000.7
2022-10-23T18:39:10.773Z,1000.7
2022-10-23T18:40:28.216Z,1000.6
2022-10-23T18:41:45.611Z,1000.6
2022-10-23T18:43:02.615Z,1000.7
2022-10-23T18:44:19.612Z,1000.6
2022-10-23T18:45:36.719Z,1000.6
2022-10-23T18:46:53.631Z,1000.6
2022-10-23T18:48:10.588Z,1000.6
2022-10-23T18:49:27.616Z,1000.6
2022-10-23T18:50:44.577Z,1000.6
2022-10-23T18:52:02.804Z,1000.5
2022-10-23T18:53:19.673Z,1000.6
2022-10-23T18:54:36.625Z,1000.6
2022-10-23T18:55:53.587Z,1000.6
2022-10-23T18:57:10.653Z,1000.6
2022-10-23T18:58:27.618Z,1000.6
2022-10-23T18:59:44.621Z,1000.6
2022-10-23T19:01:01.761Z,1000.6
2022-10-23T19:02:18.703Z,1000.6
2022-10-23T19:03:35.630Z,1000.7
2022-10-23T19:04:52.613Z,1000.6
2022-10-23T19:06:09.597Z,1000.6
2022-10-23T19:07:26.643Z,1000.6
2022-10-23T19:08:43.883Z,1000.5
2022-10-23T19:10:00.610Z,1000.5
2022-10-23T19:11:17.628Z,1000.5
2022-10-23T19:12:34.653Z,1000.5
2022-10-23T19:13:52.339Z,1000.5
2022-10-23T19:15:10.143Z,1000.5
2022-10-23T19:16:28.027Z,1000.5
2022-10-23T19:17:46.144Z,1000.5
2022-10-23T19:19:08.630Z,1000.5
2022-10-23T19:20:25.643Z,1000.5
2022-10-23T19:21:42.804Z,1000.5
2022-10-23T19:23:00.359Z,1000.5
2022-10-23T19:24:17.732Z,1000.4
2022-10-23T19:25:35.325Z,1000.4
2022-10-23T19:26:52.685Z,1000.4
2022-10-23T19:28:09.665Z,1000.3
2022-10-23T19:29:26.729Z,1000.3
2022-10-23T19:30:43.683Z,1000.3
2022-10-23T19:32:00.801Z,1000.2
2022-10-23T19:33:17.783Z,1000.2
2022-10-23T19:34:34.653Z,1000.2
2022-10-23T19:35:52.114Z,1000.2
2022-10-23T19:37:08.771Z,1000.2
2022-10-23T19:38:25.704Z,1000.2
2022-10-23T19:39:43.145Z,1000.3
2022-10-23T19:41:00.724Z,1000.3
2022-10-23T19:42:17.686Z,1000.2
2022-10-23T19:43:35.026Z,1000.2
2022-10-23T19:44:51.665Z,1000.2
2022-10-23T19:46:09.572Z,1000.2
2022-10-23T19:47:25.976Z,1000.1
2022-10-23T19:48:42.709Z,1000.2
2022-10-23T19:49:59.738Z,1000.2
2022-10-23T19:51:17.688Z,1000.1
2022-10-23T19:52:34.762Z,1000.1
2022-10-23T19:55:09.728Z,1000.1
2022-10-23T19:56:26.677Z,1000.1
2022-10-23T19:57:44.042Z,1000.1
2022-10-23T19:59:00.787Z,1000
2022-10-23T20:00:17.740Z,1000.1
2022-10-23T20:01:34.796Z,1000.1
2022-10-23T20:02:52.901Z,1000.1
2022-10-23T20:04:08.730Z,1000.1
2022-10-23T20:05:25.702Z,1000.1
2022-10-23T20:06:42.682Z,1000.1
2022-10-23T20:07:59.982Z,1000.1
2022-10-23T20:09:16.708Z,1000.1
2022-10-23T20:10:33.730Z,1000.1
2022-10-23T20:11:50.719Z,1000.1
2022-10-23T20:13:19.181Z,1000.1
2022-10-23T20:14:24.714Z,1000.1
2022-10-23T20:15:43.216Z,1000.1
2022-10-23T20:16:59.737Z,1000.1
2022-10-23T20:18:17.015Z,1000.1
2022-10-23T20:19:33.886Z,1000
2022-10-23T20:20:50.982Z,1000
2022-10-23T20:22:07.802Z,1000
2022-10-23T20:23:24.854Z,1000
2022-10-23T20:24:44.054Z,1000
2022-10-23T20:26:00.772Z,1000
2022-10-23T20:27:17.757Z,1000
2022-10-23T20:28:34.758Z,1000
2022-10-23T20:29:52.816Z,1000
2022-10-23T20:31:09.772Z,1000
2022-10-23T20:32:26.741Z,1000
2022-10-23T20:33:43.773Z,1000
2022-10-23T20:35:00.944Z,1000
2022-10-23T20:36:17.750Z,999.9
2022-10-23T20:37:34.738Z,999.9
2022-10-23T20:38:51.803Z,999.9
2022-10-23T20:40:08.746Z,999.9
2022-10-23T20:41:25.856Z,999.8
2022-10-23T20:42:42.801Z,999.8
2022-10-23T20:43:59.838Z,999.7
2022-10-23T20:45:17.774Z,999.6
2022-10-23T20:46:34.853Z,999.6
2022-10-23T20:47:52.185Z,999.6
2022-10-23T20:49:08.829Z,999.5
2022-10-23T20:50:25.772Z,999.5
2022-10-23T20:51:42.782Z,999.5
2022-10-23T20:52:59.784Z,999.5
2022-10-23T20:54:16.788Z,999.5
2022-10-23T20:55:33.807Z,999.4
2022-10-23T20:56:50.787Z,999.4
2022-10-23T20:58:07.864Z,999.4
2022-10-23T20:59:24.861Z,999.4
2022-10-23T21:00:41.840Z,999.4
2022-10-23T21:01:58.917Z,999.5
2022-10-23T21:03:15.828Z,999.5
2022-10-23T21:04:32.801Z,999.6
2022-10-23T21:05:49.896Z,999.7
2022-10-23T21:07:11.246Z,999.7
2022-10-23T21:08:23.826Z,999.7
2022-10-23T21:09:40.806Z,999.6
2022-10-23T21:10:57.947Z,999.5
2022-10-23T21:12:14.820Z,999.6
2022-10-23T21:13:32.209Z,999.6
2022-10-23T21:14:48.813Z,999.6
2022-10-23T21:16:05.856Z,999.6
2022-10-23T21:17:22.809Z,999.6
2022-10-23T21:18:46.805Z,999.5
2022-10-23T21:19:56.794Z,999.5
2022-10-23T21:21:13.795Z,999.5
2022-10-23T21:22:30.899Z,999.5
2022-10-23T21:23:47.818Z,999.5
2022-10-23T21:25:04.967Z,999.5
2022-10-23T21:26:22.139Z,999.5
2022-10-23T21:27:38.867Z,999.5
2022-10-23T21:29:13.634Z,999.4
2022-10-23T21:30:12.851Z,999.4
2022-10-23T21:31:29.836Z,999.4
2022-10-23T21:32:46.852Z,999.4
2022-10-23T21:34:03.900Z,999.4
2022-10-23T21:35:20.923Z,999.4
2022-10-23T21:36:48.427Z,999.4
2022-10-23T21:37:54.839Z,999.4
2022-10-23T21:39:11.873Z,999.3
2022-10-23T21:40:28.871Z,999.3
2022-10-23T21:41:46.501Z,999.3
2022-10-23T21:43:05.269Z,999.3
2022-10-23T21:44:21.886Z,999.3
2022-10-23T21:45:38.880Z,999.3
2022-10-23T21:46:55.887Z,999.3
2022-10-23T21:48:12.843Z,999.2
2022-10-23T21:49:29.867Z,999.2
2022-10-23T21:50:46.880Z,999.2
2022-10-23T21:52:03.875Z,999.2
2022-10-23T21:53:20.858Z,999.2
2022-10-23T21:54:38.328Z,999.2
2022-10-23T21:55:55.908Z,999.2
2022-10-23T21:57:12.875Z,999.2
2022-10-23T21:58:29.892Z,999.1
2022-10-23T21:59:46.888Z,999
2022-10-23T22:01:04.083Z,999
2022-10-23T22:02:20.958Z,999.1
2022-10-23T22:03:39.010Z,999
2022-10-23T22:04:55.898Z,999
2022-10-23T22:06:12.902Z,999
2022-10-23T22:07:30.330Z,999
2022-10-23T22:08:46.892Z,998.9
2022-10-23T22:10:04.026Z,998.9
2022-10-23T22:11:20.927Z,998.9
2022-10-23T22:12:37.995Z,998.9
2022-10-23T22:13:55.295Z,998.9
2022-10-23T22:15:11.906Z,998.9
2022-10-23T22:16:28.895Z,998.8
2022-10-23T22:17:46.222Z,998.8
2022-10-23T22:19:02.909Z,998.8
2022-10-23T22:20:20.590Z,998.9
2022-10-23T22:21:37.912Z,998.8
2022-10-23T22:22:54.919Z,998.9
2022-10-23T22:24:11.935Z,998.9
2022-10-23T22:25:29.127Z,998.9
2022-10-23T22:26:46.279Z,998.9
2022-10-23T22:28:02.974Z,998.9
2022-10-23T22:29:20.147Z,998.9
2022-10-23T22:30:37.033Z,998.9
2022-10-23T22:31:53.922Z,998.8
2022-10-23T22:33:10.969Z,998.8
2022-10-23T22:34:48.209Z,998.8
2022-10-23T22:35:44.916Z,998.7
2022-10-23T22:37:01.916Z,998.8
2022-10-23T22:38:18.999Z,998.8
2022-10-23T22:39:35.924Z,998.7
2022-10-23T22:40:52.925Z,998.7
2022-10-23T22:42:09.937Z,998.7
2022-10-23T22:43:27.057Z,998.6
2022-10-23T22:44:43.949Z,998.6
2022-10-23T22:46:00.973Z,998.6
2022-10-23T22:47:17.939Z,998.7
2022-10-23T22:48:34.962Z,998.7
2022-10-23T22:49:51.966Z,998.7
2022-10-23T22:51:09.145Z,998.7
2022-10-23T22:52:26.003Z,998.7
2022-10-23T22:53:42.950Z,998.7
2022-10-23T22:54:59.962Z,998.6
2022-10-23T22:56:16.956Z,998.6
2022-10-23T22:57:33.979Z,998.6
2022-10-23T22:58:50.962Z,998.6
2022-10-23T23:00:08.046Z,998.5
2022-10-23T23:01:25.080Z,998.5
2022-10-23T23:02:41.958Z,998.6
2022-10-23T23:04:04.307Z,998.5
2022-10-23T23:05:15.983Z,998.6
2022-10-23T23:06:32.995Z,998.6
2022-10-23T23:07:50.021Z,998.7
2022-10-23T23:09:06.958Z,998.7
2022-10-23T23:10:23.972Z,998.8
2022-10-23T23:11:45.846Z,998.7
2022-10-23T23:12:57.965Z,998.7
2022-10-23T23:14:15.754Z,998.7
2022-10-23T23:15:32.021Z,998.8
2022-10-23T23:16:49.021Z,998.7
2022-10-23T23:18:06.004Z,998.7
2022-10-23T23:19:23.051Z,998.7
2022-10-23T23:20:39.994Z,998.7
2022-10-23T23:21:57.035Z,998.7
2022-10-23T23:23:13.986Z,998.7
2022-10-23T23:24:31.017Z,998.8
2022-10-23T23:25:47.994Z,998.8
2022-10-23T23:27:05.031Z,998.8
2022-10-23T23:28:22.022Z,998.8
2022-10-23T23:29:39.000Z,998.7
2022-10-23T23:30:56.046Z,998.8
2022-10-23T23:32:13.063Z,998.8
2022-10-23T23:33:30.006Z,998.8
2022-10-23T23:34:47.007Z,998.8
2022-10-23T23:36:04.015Z,998.8
2022-10-23T23:37:21.075Z,998.8
2022-10-23T23:38:38.014Z,998.9
2022-10-23T23:39:55.007Z,998.9
2022-10-23T23:41:12.010Z,998.9
2022-10-23T23:42:29.065Z,998.9
2022-10-23T23:43:46.101Z,998.9
2022-10-23T23:45:13.775Z,998.8
2022-10-23T23:46:20.041Z,998.8
2022-10-23T23:47:37.050Z,998.9
2022-10-23T23:48:54.014Z,998.8
2022-10-23T23:50:11.018Z,998.9
2022-10-23T23:51:28.023Z,998.9
2022-10-23T23:52:45.071Z,998.8
2022-10-23T23:54:02.026Z,998.8
2022-10-23T23:55:19.440Z,998.7
2022-10-23T23:56:36.046Z,998.8
2022-10-23T23:57:53.034Z,998.8
2022-10-23T23:59:10.049Z,998.8
